sensor_id;sensor_type;location;lat;lon;timestamp;P1;durP1;ratioP1;P2;durP2;ratioP2
7169;SDS011;3626;42.656;23.312;2022-12-24T00:00:05;53.88;;;25.83;;
7169;SDS011;3626;42.656;23.312;2022-12-24T00:00:12;52.98;;;25.64;;
7169;SDS011;3626;42.656;23.312;2022-12-24T00:00:18;52.30;;;25.52;;
7169;SDS011;3626;42.656;23.312;2022-12-24T00:00:24;53.00;;;25.80;;
7169;SDS011;3626;42.656;23.312;2022-12-24T00:00:30;52.60;;;25.90;;
7169;SDS011;3626;42.656;23.312;2022-12-24T00:00:36;52.27;;;25.67;;
7169;SDS011;3626;42.656;23.312;2022-12-24T00:00:41;52.72;;;25.90;;
7169;SDS011;3626;42.656;23.312;2022-12-24T00:00:47;52.33;;;25.45;;
7169;SDS011;3626;42.656;23.312;2022-12-24T00:00:54;52.47;;;25.30;;
7169;SDS011;3626;42.656;23.312;2022-12-24T00:01:01;54.35;;;25.48;;
7169;SDS011;3626;42.656;23.312;2022-12-24T00:01:07;54.83;;;25.23;;
7169;SDS011;3626;42.656;23.312;2022-12-24T00:01:14;55.60;;;25.36;;
7169;SDS011;3626;42.656;23.312;2022-12-24T00:01:20;55.75;;;25.20;;
7169;SDS011;3626;42.656;23.312;2022-12-24T00:01:26;55.40;;;25.15;;
7169;SDS011;3626;42.656;23.312;2022-12-24T00:01:32;55.45;;;25.13;;
7169;SDS011;3626;42.656;23.312;2022-12-24T00:01:38;54.30;;;24.85;;
7169;SDS011;3626;42.656;23.312;2022-12-24T00:01:44;53.97;;;24.87;;
7169;SDS011;3626;42.656;23.312;2022-12-24T00:01:50;56.03;;;25.17;;
7169;SDS011;3626;42.656;23.312;2022-12-24T00:01:55;56.20;;;25.25;;
7169;SDS011;3626;42.656;23.312;2022-12-24T00:02:01;56.50;;;25.42;;
7169;SDS011;3626;42.656;23.312;2022-12-24T00:02:07;57.22;;;25.73;;
7169;SDS011;3626;42.656;23.312;2022-12-24T00:02:13;56.67;;;25.60;;
7169;SDS011;3626;42.656;23.312;2022-12-24T00:02:19;55.60;;;25.55;;
7169;SDS011;3626;42.656;23.312;2022-12-24T00:02:25;56.92;;;25.25;;
7169;SDS011;3626;42.656;23.312;2022-12-24T00:02:31;58.23;;;25.40;;
7169;SDS011;3626;42.656;23.312;2022-12-24T00:02:37;59.65;;;25.65;;
7169;SDS011;3626;42.656;23.312;2022-12-24T00:02:43;59.45;;;25.45;;
7169;SDS011;3626;42.656;23.312;2022-12-24T00:02:49;58.28;;;25.40;;
7169;SDS011;3626;42.656;23.312;2022-12-24T00:02:55;56.97;;;25.00;;
7169;SDS011;3626;42.656;23.312;2022-12-24T00:03:01;55.38;;;24.58;;
7169;SDS011;3626;42.656;23.312;2022-12-24T00:03:07;55.25;;;24.45;;
7169;SDS011;3626;42.656;23.312;2022-12-24T00:03:13;56.33;;;24.52;;
7169;SDS011;3626;42.656;23.312;2022-12-24T00:03:18;57.10;;;24.43;;
7169;SDS011;3626;42.656;23.312;2022-12-24T00:03:24;54.85;;;24.15;;
7169;SDS011;3626;42.656;23.312;2022-12-24T00:03:30;53.17;;;23.67;;
7169;SDS011;3626;42.656;23.312;2022-12-24T00:03:36;51.30;;;23.13;;
7169;SDS011;3626;42.656;23.312;2022-12-24T00:03:42;51.20;;;22.95;;
7169;SDS011;3626;42.656;23.312;2022-12-24T00:03:48;50.90;;;22.83;;
7169;SDS011;3626;42.656;23.312;2022-12-24T00:03:54;52.13;;;22.83;;
7169;SDS011;3626;42.656;23.312;2022-12-24T00:03:59;53.35;;;23.10;;
7169;SDS011;3626;42.656;23.312;2022-12-24T00:04:05;51.90;;;22.87;;
7169;SDS011;3626;42.656;23.312;2022-12-24T00:04:12;50.56;;;22.64;;
7169;SDS011;3626;42.656;23.312;2022-12-24T00:04:18;50.38;;;22.70;;
7169;SDS011;3626;42.656;23.312;2022-12-24T00:04:24;51.08;;;22.90;;
7169;SDS011;3626;42.656;23.312;2022-12-24T00:04:29;51.20;;;22.83;;
7169;SDS011;3626;42.656;23.312;2022-12-24T00:04:35;50.95;;;22.80;;
7169;SDS011;3626;42.656;23.312;2022-12-24T00:04:41;50.83;;;23.05;;
7169;SDS011;3626;42.656;23.312;2022-12-24T00:04:47;51.35;;;23.40;;
7169;SDS011;3626;42.656;23.312;2022-12-24T00:04:52;50.50;;;23.58;;
7169;SDS011;3626;42.656;23.312;2022-12-24T00:04:58;49.40;;;23.57;;
7169;SDS011;3626;42.656;23.312;2022-12-24T00:05:04;49.97;;;23.90;;
7169;SDS011;3626;42.656;23.312;2022-12-24T00:05:10;50.98;;;24.18;;
7169;SDS011;3626;42.656;23.312;2022-12-24T00:05:17;49.63;;;24.13;;
7169;SDS011;3626;42.656;23.312;2022-12-24T00:05:22;49.55;;;24.35;;
7169;SDS011;3626;42.656;23.312;2022-12-24T00:05:28;49.17;;;24.40;;
7169;SDS011;3626;42.656;23.312;2022-12-24T00:05:36;48.90;;;24.33;;
7169;SDS011;3626;42.656;23.312;2022-12-24T00:05:42;49.43;;;24.20;;
7169;SDS011;3626;42.656;23.312;2022-12-24T00:05:47;49.95;;;23.95;;
7169;SDS011;3626;42.656;23.312;2022-12-24T00:05:54;49.00;;;23.40;;
7169;SDS011;3626;42.656;23.312;2022-12-24T00:06:02;48.22;;;23.27;;
7169;SDS011;3626;42.656;23.312;2022-12-24T00:06:09;49.70;;;23.17;;
7169;SDS011;3626;42.656;23.312;2022-12-24T00:06:21;51.80;;;23.23;;
7169;SDS011;3626;42.656;23.312;2022-12-24T00:06:28;51.82;;;22.80;;
7169;SDS011;3626;42.656;23.312;2022-12-24T00:06:34;50.86;;;22.48;;
7169;SDS011;3626;42.656;23.312;2022-12-24T00:06:40;51.08;;;22.23;;
7169;SDS011;3626;42.656;23.312;2022-12-24T00:06:46;49.43;;;21.77;;
7169;SDS011;3626;42.656;23.312;2022-12-24T00:06:51;49.47;;;21.90;;
7169;SDS011;3626;42.656;23.312;2022-12-24T00:06:57;49.50;;;21.92;;
7169;SDS011;3626;42.656;23.312;2022-12-24T00:07:03;47.83;;;21.50;;
7169;SDS011;3626;42.656;23.312;2022-12-24T00:07:12;45.67;;;21.20;;
7169;SDS011;3626;42.656;23.312;2022-12-24T00:07:17;44.08;;;20.73;;
7169;SDS011;3626;42.656;23.312;2022-12-24T00:07:24;43.00;;;20.78;;
7169;SDS011;3626;42.656;23.312;2022-12-24T00:07:30;44.27;;;20.80;;
7169;SDS011;3626;42.656;23.312;2022-12-24T00:07:36;45.30;;;21.27;;
7169;SDS011;3626;42.656;23.312;2022-12-24T00:07:42;45.00;;;21.70;;
7169;SDS011;3626;42.656;23.312;2022-12-24T00:07:47;46.47;;;22.65;;
7169;SDS011;3626;42.656;23.312;2022-12-24T00:07:54;47.83;;;23.25;;
7169;SDS011;3626;42.656;23.312;2022-12-24T00:08:00;51.06;;;24.06;;
7169;SDS011;3626;42.656;23.312;2022-12-24T00:08:06;52.58;;;24.90;;
7169;SDS011;3626;42.656;23.312;2022-12-24T00:08:12;53.87;;;25.47;;
7169;SDS011;3626;42.656;23.312;2022-12-24T00:08:17;55.30;;;25.92;;
7169;SDS011;3626;42.656;23.312;2022-12-24T00:08:23;56.05;;;26.20;;
7169;SDS011;3626;42.656;23.312;2022-12-24T00:08:29;57.88;;;27.55;;
7169;SDS011;3626;42.656;23.312;2022-12-24T00:08:35;59.95;;;28.42;;
7169;SDS011;3626;42.656;23.312;2022-12-24T00:08:41;60.13;;;28.63;;
7169;SDS011;3626;42.656;23.312;2022-12-24T00:08:46;63.58;;;28.40;;
7169;SDS011;3626;42.656;23.312;2022-12-24T00:08:52;64.38;;;28.30;;
7169;SDS011;3626;42.656;23.312;2022-12-24T00:08:59;63.40;;;28.00;;
7169;SDS011;3626;42.656;23.312;2022-12-24T00:09:05;63.13;;;27.90;;
7169;SDS011;3626;42.656;23.312;2022-12-24T00:09:11;63.53;;;27.97;;
7169;SDS011;3626;42.656;23.312;2022-12-24T00:09:16;64.20;;;28.50;;
7169;SDS011;3626;42.656;23.312;2022-12-24T00:09:22;64.22;;;28.73;;
7169;SDS011;3626;42.656;23.312;2022-12-24T00:09:28;65.30;;;28.50;;
7169;SDS011;3626;42.656;23.312;2022-12-24T00:09:34;64.77;;;27.87;;
7169;SDS011;3626;42.656;23.312;2022-12-24T00:09:39;64.68;;;27.73;;
7169;SDS011;3626;42.656;23.312;2022-12-24T00:09:45;61.08;;;27.73;;
7169;SDS011;3626;42.656;23.312;2022-12-24T00:09:51;59.60;;;27.45;;
7169;SDS011;3626;42.656;23.312;2022-12-24T00:09:56;58.50;;;27.03;;
7169;SDS011;3626;42.656;23.312;2022-12-24T00:10:02;57.83;;;26.80;;
7169;SDS011;3626;42.656;23.312;2022-12-24T00:10:08;56.17;;;26.58;;
7169;SDS011;3626;42.656;23.312;2022-12-24T00:10:15;54.93;;;26.03;;
7169;SDS011;3626;42.656;23.312;2022-12-24T00:10:20;55.83;;;26.20;;
7169;SDS011;3626;42.656;23.312;2022-12-24T00:10:26;55.40;;;26.45;;
7169;SDS011;3626;42.656;23.312;2022-12-24T00:10:32;53.35;;;26.33;;
7169;SDS011;3626;42.656;23.312;2022-12-24T00:10:38;54.10;;;26.48;;
7169;SDS011;3626;42.656;23.312;2022-12-24T00:10:44;55.75;;;26.85;;
7169;SDS011;3626;42.656;23.312;2022-12-24T00:10:55;58.04;;;27.81;;
7169;SDS011;3626;42.656;23.312;2022-12-24T00:11:01;59.70;;;28.60;;
7169;SDS011;3626;42.656;23.312;2022-12-24T00:11:07;61.20;;;29.15;;
7169;SDS011;3626;42.656;23.312;2022-12-24T00:11:12;63.08;;;29.50;;
7169;SDS011;3626;42.656;23.312;2022-12-24T00:11:19;65.35;;;29.60;;
7169;SDS011;3626;42.656;23.312;2022-12-24T00:11:25;65.72;;;29.48;;
7169;SDS011;3626;42.656;23.312;2022-12-24T00:11:31;66.20;;;29.67;;
7169;SDS011;3626;42.656;23.312;2022-12-24T00:11:36;67.15;;;29.95;;
7169;SDS011;3626;42.656;23.312;2022-12-24T00:11:42;71.10;;;30.73;;
7169;SDS011;3626;42.656;23.312;2022-12-24T00:11:48;72.82;;;31.30;;
7169;SDS011;3626;42.656;23.312;2022-12-24T00:11:54;74.40;;;32.53;;
7169;SDS011;3626;42.656;23.312;2022-12-24T00:12:00;78.47;;;33.63;;
7169;SDS011;3626;42.656;23.312;2022-12-24T00:12:05;82.95;;;34.63;;
7169;SDS011;3626;42.656;23.312;2022-12-24T00:12:12;87.44;;;36.58;;
7169;SDS011;3626;42.656;23.312;2022-12-24T00:12:18;90.53;;;38.67;;
7169;SDS011;3626;42.656;23.312;2022-12-24T00:12:24;96.45;;;40.75;;
7169;SDS011;3626;42.656;23.312;2022-12-24T00:12:30;101.35;;;43.05;;
7169;SDS011;3626;42.656;23.312;2022-12-24T00:12:36;107.03;;;45.05;;
7169;SDS011;3626;42.656;23.312;2022-12-24T00:12:41;108.63;;;46.40;;
7169;SDS011;3626;42.656;23.312;2022-12-24T00:12:47;110.75;;;47.03;;
7169;SDS011;3626;42.656;23.312;2022-12-24T00:12:53;113.47;;;47.80;;
7169;SDS011;3626;42.656;23.312;2022-12-24T00:12:59;114.15;;;48.15;;
7169;SDS011;3626;42.656;23.312;2022-12-24T00:13:04;115.05;;;48.17;;
7169;SDS011;3626;42.656;23.312;2022-12-24T00:13:10;115.43;;;48.08;;
7169;SDS011;3626;42.656;23.312;2022-12-24T00:13:16;113.63;;;47.80;;
7169;SDS011;3626;42.656;23.312;2022-12-24T00:13:22;111.75;;;47.40;;
7169;SDS011;3626;42.656;23.312;2022-12-24T00:13:27;109.15;;;46.55;;
7169;SDS011;3626;42.656;23.312;2022-12-24T00:13:33;107.10;;;45.95;;
7169;SDS011;3626;42.656;23.312;2022-12-24T00:13:39;106.20;;;45.65;;
7169;SDS011;3626;42.656;23.312;2022-12-24T00:13:45;104.10;;;45.40;;
7169;SDS011;3626;42.656;23.312;2022-12-24T00:13:51;102.72;;;45.15;;
7169;SDS011;3626;42.656;23.312;2022-12-24T00:13:57;102.56;;;45.08;;
7169;SDS011;3626;42.656;23.312;2022-12-24T00:14:03;100.72;;;44.67;;
7169;SDS011;3626;42.656;23.312;2022-12-24T00:14:12;96.60;;;43.67;;
7169;SDS011;3626;42.656;23.312;2022-12-24T00:14:18;95.43;;;42.53;;
7169;SDS011;3626;42.656;23.312;2022-12-24T00:14:23;96.13;;;41.80;;
7169;SDS011;3626;42.656;23.312;2022-12-24T00:14:30;93.60;;;40.83;;
7169;SDS011;3626;42.656;23.312;2022-12-24T00:14:35;91.85;;;40.20;;
7169;SDS011;3626;42.656;23.312;2022-12-24T00:14:41;92.75;;;39.55;;
7169;SDS011;3626;42.656;23.312;2022-12-24T00:14:47;91.20;;;38.77;;
7169;SDS011;3626;42.656;23.312;2022-12-24T00:14:52;89.38;;;37.97;;
7169;SDS011;3626;42.656;23.312;2022-12-24T00:14:58;85.78;;;37.03;;
7169;SDS011;3626;42.656;23.312;2022-12-24T00:15:04;85.38;;;36.75;;
7169;SDS011;3626;42.656;23.312;2022-12-24T00:15:11;85.50;;;36.53;;
7169;SDS011;3626;42.656;23.312;2022-12-24T00:15:17;84.55;;;36.35;;
7169;SDS011;3626;42.656;23.312;2022-12-24T00:15:24;82.95;;;36.20;;
7169;SDS011;3626;42.656;23.312;2022-12-24T00:15:29;83.40;;;35.50;;
7169;SDS011;3626;42.656;23.312;2022-12-24T00:15:35;81.82;;;35.03;;
7169;SDS011;3626;42.656;23.312;2022-12-24T00:15:41;79.15;;;34.83;;
7169;SDS011;3626;42.656;23.312;2022-12-24T00:15:47;79.23;;;34.60;;
7169;SDS011;3626;42.656;23.312;2022-12-24T00:15:53;79.85;;;34.47;;
7169;SDS011;3626;42.656;23.312;2022-12-24T00:15:58;81.05;;;34.58;;
7169;SDS011;3626;42.656;23.312;2022-12-24T00:16:05;83.20;;;34.57;;
7169;SDS011;3626;42.656;23.312;2022-12-24T00:16:11;81.97;;;34.17;;
7169;SDS011;3626;42.656;23.312;2022-12-24T00:16:17;83.17;;;33.97;;
7169;SDS011;3626;42.656;23.312;2022-12-24T00:16:22;81.82;;;33.53;;
7169;SDS011;3626;42.656;23.312;2022-12-24T00:16:28;81.28;;;33.67;;
7169;SDS011;3626;42.656;23.312;2022-12-24T00:16:34;80.82;;;33.70;;
7169;SDS011;3626;42.656;23.312;2022-12-24T00:16:40;80.55;;;33.28;;
7169;SDS011;3626;42.656;23.312;2022-12-24T00:16:45;79.00;;;32.77;;
7169;SDS011;3626;42.656;23.312;2022-12-24T00:16:51;76.55;;;32.60;;
7169;SDS011;3626;42.656;23.312;2022-12-24T00:16:57;75.40;;;32.38;;
7169;SDS011;3626;42.656;23.312;2022-12-24T00:17:03;73.47;;;32.05;;
7169;SDS011;3626;42.656;23.312;2022-12-24T00:17:08;73.10;;;32.37;;
7169;SDS011;3626;42.656;23.312;2022-12-24T00:17:14;72.75;;;32.20;;
7169;SDS011;3626;42.656;23.312;2022-12-24T00:17:20;72.22;;;32.30;;
7169;SDS011;3626;42.656;23.312;2022-12-24T00:17:27;70.83;;;32.07;;
7169;SDS011;3626;42.656;23.312;2022-12-24T00:17:32;70.40;;;31.87;;
7169;SDS011;3626;42.656;23.312;2022-12-24T00:17:38;69.63;;;31.77;;
7169;SDS011;3626;42.656;23.312;2022-12-24T00:17:44;70.47;;;32.30;;
7169;SDS011;3626;42.656;23.312;2022-12-24T00:17:50;71.88;;;32.47;;
7169;SDS011;3626;42.656;23.312;2022-12-24T00:17:55;71.70;;;32.40;;
7169;SDS011;3626;42.656;23.312;2022-12-24T00:18:01;71.78;;;32.85;;
7169;SDS011;3626;42.656;23.312;2022-12-24T00:18:07;72.50;;;32.85;;
7169;SDS011;3626;42.656;23.312;2022-12-24T00:18:13;71.07;;;32.80;;
7169;SDS011;3626;42.656;23.312;2022-12-24T00:18:19;71.07;;;32.60;;
7169;SDS011;3626;42.656;23.312;2022-12-24T00:18:24;71.50;;;32.85;;
7169;SDS011;3626;42.656;23.312;2022-12-24T00:18:30;71.15;;;33.05;;
7169;SDS011;3626;42.656;23.312;2022-12-24T00:18:36;71.63;;;33.10;;
7169;SDS011;3626;42.656;23.312;2022-12-24T00:18:43;74.37;;;33.30;;
7169;SDS011;3626;42.656;23.312;2022-12-24T00:18:49;72.95;;;33.10;;
7169;SDS011;3626;42.656;23.312;2022-12-24T00:18:54;72.95;;;33.10;;
7169;SDS011;3626;42.656;23.312;2022-12-24T00:19:00;72.90;;;33.03;;
7169;SDS011;3626;42.656;23.312;2022-12-24T00:19:06;73.32;;;33.25;;
7169;SDS011;3626;42.656;23.312;2022-12-24T00:19:12;73.10;;;33.30;;
7169;SDS011;3626;42.656;23.312;2022-12-24T00:19:17;73.65;;;33.85;;
7169;SDS011;3626;42.656;23.312;2022-12-24T00:19:23;73.77;;;33.80;;
7169;SDS011;3626;42.656;23.312;2022-12-24T00:19:29;73.70;;;33.75;;
7169;SDS011;3626;42.656;23.312;2022-12-24T00:19:35;73.25;;;33.53;;
7169;SDS011;3626;42.656;23.312;2022-12-24T00:19:40;71.40;;;33.08;;
7169;SDS011;3626;42.656;23.312;2022-12-24T00:19:47;71.88;;;32.63;;
7169;SDS011;3626;42.656;23.312;2022-12-24T00:19:53;72.80;;;32.75;;
7169;SDS011;3626;42.656;23.312;2022-12-24T00:19:58;73.45;;;32.53;;
7169;SDS011;3626;42.656;23.312;2022-12-24T00:20:06;70.20;;;31.50;;
7169;SDS011;3626;42.656;23.312;2022-12-24T00:20:13;70.22;;;31.30;;
7169;SDS011;3626;42.656;23.312;2022-12-24T00:20:18;69.78;;;31.15;;
7169;SDS011;3626;42.656;23.312;2022-12-24T00:20:24;69.80;;;31.00;;
7169;SDS011;3626;42.656;23.312;2022-12-24T00:20:30;69.63;;;30.90;;
7169;SDS011;3626;42.656;23.312;2022-12-24T00:20:36;69.28;;;30.75;;
7169;SDS011;3626;42.656;23.312;2022-12-24T00:20:44;68.00;;;30.60;;
7169;SDS011;3626;42.656;23.312;2022-12-24T00:20:51;65.71;;;30.14;;
7169;SDS011;3626;42.656;23.312;2022-12-24T00:20:56;60.72;;;29.23;;
7169;SDS011;3626;42.656;23.312;2022-12-24T00:21:02;59.47;;;29.02;;
7169;SDS011;3626;42.656;23.312;2022-12-24T00:21:10;59.23;;;28.17;;
7169;SDS011;3626;42.656;23.312;2022-12-24T00:21:16;57.08;;;27.48;;
7169;SDS011;3626;42.656;23.312;2022-12-24T00:21:22;55.08;;;27.00;;
7169;SDS011;3626;42.656;23.312;2022-12-24T00:21:29;52.60;;;26.37;;
7169;SDS011;3626;42.656;23.312;2022-12-24T00:21:34;52.42;;;26.30;;
7169;SDS011;3626;42.656;23.312;2022-12-24T00:21:40;52.13;;;26.13;;
7169;SDS011;3626;42.656;23.312;2022-12-24T00:21:46;52.45;;;26.00;;
7169;SDS011;3626;42.656;23.312;2022-12-24T00:21:52;54.80;;;26.37;;
7169;SDS011;3626;42.656;23.312;2022-12-24T00:21:57;55.20;;;25.92;;
7169;SDS011;3626;42.656;23.312;2022-12-24T00:22:03;56.65;;;25.63;;
7169;SDS011;3626;42.656;23.312;2022-12-24T00:22:09;56.30;;;25.83;;
7169;SDS011;3626;42.656;23.312;2022-12-24T00:22:15;56.17;;;25.70;;
7169;SDS011;3626;42.656;23.312;2022-12-24T00:22:20;57.40;;;25.73;;
7169;SDS011;3626;42.656;23.312;2022-12-24T00:22:26;58.13;;;25.80;;
7169;SDS011;3626;42.656;23.312;2022-12-24T00:22:32;58.05;;;25.48;;
7169;SDS011;3626;42.656;23.312;2022-12-24T00:22:37;57.27;;;25.63;;
7169;SDS011;3626;42.656;23.312;2022-12-24T00:22:44;57.17;;;26.10;;
7169;SDS011;3626;42.656;23.312;2022-12-24T00:22:50;54.95;;;26.00;;
7169;SDS011;3626;42.656;23.312;2022-12-24T00:22:57;55.97;;;26.45;;
7169;SDS011;3626;42.656;23.312;2022-12-24T00:23:03;55.04;;;26.68;;
7169;SDS011;3626;42.656;23.312;2022-12-24T00:23:09;54.53;;;26.67;;
7169;SDS011;3626;42.656;23.312;2022-12-24T00:23:14;53.80;;;26.77;;
7169;SDS011;3626;42.656;23.312;2022-12-24T00:23:21;53.96;;;27.08;;
7169;SDS011;3626;42.656;23.312;2022-12-24T00:23:27;54.43;;;27.10;;
7169;SDS011;3626;42.656;23.312;2022-12-24T00:23:33;54.65;;;27.10;;
7169;SDS011;3626;42.656;23.312;2022-12-24T00:23:39;53.67;;;26.58;;
7169;SDS011;3626;42.656;23.312;2022-12-24T00:23:45;53.83;;;26.17;;
7169;SDS011;3626;42.656;23.312;2022-12-24T00:23:51;53.22;;;25.60;;
7169;SDS011;3626;42.656;23.312;2022-12-24T00:23:56;52.73;;;25.53;;
7169;SDS011;3626;42.656;23.312;2022-12-24T00:24:03;53.87;;;25.50;;
7169;SDS011;3626;42.656;23.312;2022-12-24T00:24:10;55.53;;;25.53;;
7169;SDS011;3626;42.656;23.312;2022-12-24T00:24:15;56.27;;;25.57;;
7169;SDS011;3626;42.656;23.312;2022-12-24T00:24:21;55.90;;;25.38;;
7169;SDS011;3626;42.656;23.312;2022-12-24T00:24:27;55.22;;;25.25;;
7169;SDS011;3626;42.656;23.312;2022-12-24T00:24:33;56.30;;;25.58;;
7169;SDS011;3626;42.656;23.312;2022-12-24T00:24:38;58.00;;;26.02;;
7169;SDS011;3626;42.656;23.312;2022-12-24T00:24:44;57.40;;;26.00;;
7169;SDS011;3626;42.656;23.312;2022-12-24T00:24:50;57.13;;;26.05;;
7169;SDS011;3626;42.656;23.312;2022-12-24T00:24:56;57.05;;;26.20;;
7169;SDS011;3626;42.656;23.312;2022-12-24T00:25:01;58.28;;;26.27;;
7169;SDS011;3626;42.656;23.312;2022-12-24T00:25:08;58.08;;;26.30;;
7169;SDS011;3626;42.656;23.312;2022-12-24T00:25:14;57.00;;;26.20;;
7169;SDS011;3626;42.656;23.312;2022-12-24T00:25:20;57.28;;;26.05;;
7169;SDS011;3626;42.656;23.312;2022-12-24T00:25:25;57.90;;;25.90;;
7169;SDS011;3626;42.656;23.312;2022-12-24T00:25:31;57.45;;;25.73;;
7169;SDS011;3626;42.656;23.312;2022-12-24T00:25:37;56.65;;;25.52;;
7169;SDS011;3626;42.656;23.312;2022-12-24T00:25:44;57.17;;;25.10;;
7169;SDS011;3626;42.656;23.312;2022-12-24T00:25:50;57.78;;;24.95;;
7169;SDS011;3626;42.656;23.312;2022-12-24T00:25:55;57.25;;;24.55;;
7169;SDS011;3626;42.656;23.312;2022-12-24T00:26:01;56.70;;;24.60;;
7169;SDS011;3626;42.656;23.312;2022-12-24T00:26:07;55.90;;;24.60;;
7169;SDS011;3626;42.656;23.312;2022-12-24T00:26:13;55.50;;;24.50;;
7169;SDS011;3626;42.656;23.312;2022-12-24T00:26:19;54.80;;;24.53;;
7169;SDS011;3626;42.656;23.312;2022-12-24T00:26:25;53.85;;;24.63;;
7169;SDS011;3626;42.656;23.312;2022-12-24T00:26:31;52.80;;;24.05;;
7169;SDS011;3626;42.656;23.312;2022-12-24T00:26:36;50.83;;;23.70;;
7169;SDS011;3626;42.656;23.312;2022-12-24T00:26:42;50.10;;;23.58;;
7169;SDS011;3626;42.656;23.312;2022-12-24T00:26:48;49.60;;;23.73;;
7169;SDS011;3626;42.656;23.312;2022-12-24T00:26:54;50.00;;;23.83;;
7169;SDS011;3626;42.656;23.312;2022-12-24T00:27:00;49.97;;;23.90;;
7169;SDS011;3626;42.656;23.312;2022-12-24T00:27:07;49.30;;;23.60;;
7169;SDS011;3626;42.656;23.312;2022-12-24T00:27:13;50.50;;;23.60;;
7169;SDS011;3626;42.656;23.312;2022-12-24T00:27:19;50.92;;;23.52;;
7169;SDS011;3626;42.656;23.312;2022-12-24T00:27:24;52.65;;;23.48;;
7169;SDS011;3626;42.656;23.312;2022-12-24T00:27:30;53.42;;;23.80;;
7169;SDS011;3626;42.656;23.312;2022-12-24T00:27:36;53.80;;;24.00;;
7169;SDS011;3626;42.656;23.312;2022-12-24T00:27:42;53.95;;;24.00;;
7169;SDS011;3626;42.656;23.312;2022-12-24T00:27:47;54.28;;;24.00;;
7169;SDS011;3626;42.656;23.312;2022-12-24T00:27:53;54.38;;;24.15;;
7169;SDS011;3626;42.656;23.312;2022-12-24T00:27:59;54.23;;;24.00;;
7169;SDS011;3626;42.656;23.312;2022-12-24T00:28:05;54.38;;;24.02;;
7169;SDS011;3626;42.656;23.312;2022-12-24T00:28:11;53.17;;;23.70;;
7169;SDS011;3626;42.656;23.312;2022-12-24T00:28:17;51.74;;;23.46;;
7169;SDS011;3626;42.656;23.312;2022-12-24T00:28:23;51.07;;;23.60;;
7169;SDS011;3626;42.656;23.312;2022-12-24T00:28:28;50.25;;;23.55;;
7169;SDS011;3626;42.656;23.312;2022-12-24T00:28:35;50.57;;;23.77;;
7169;SDS011;3626;42.656;23.312;2022-12-24T00:28:41;50.30;;;23.85;;
7169;SDS011;3626;42.656;23.312;2022-12-24T00:28:47;51.37;;;24.10;;
7169;SDS011;3626;42.656;23.312;2022-12-24T00:28:52;51.85;;;24.02;;
7169;SDS011;3626;42.656;23.312;2022-12-24T00:28:58;51.72;;;24.13;;
7169;SDS011;3626;42.656;23.312;2022-12-24T00:29:04;51.17;;;24.20;;
7169;SDS011;3626;42.656;23.312;2022-12-24T00:29:11;52.50;;;24.64;;
7169;SDS011;3626;42.656;23.312;2022-12-24T00:29:16;54.33;;;24.90;;
7169;SDS011;3626;42.656;23.312;2022-12-24T00:29:22;55.13;;;24.88;;
7169;SDS011;3626;42.656;23.312;2022-12-24T00:29:28;56.10;;;25.33;;
7169;SDS011;3626;42.656;23.312;2022-12-24T00:29:34;56.67;;;25.15;;
7169;SDS011;3626;42.656;23.312;2022-12-24T00:29:42;58.43;;;25.35;;
7169;SDS011;3626;42.656;23.312;2022-12-24T00:29:49;58.22;;;25.02;;
7169;SDS011;3626;42.656;23.312;2022-12-24T00:29:55;57.67;;;25.13;;
7169;SDS011;3626;42.656;23.312;2022-12-24T00:30:00;58.10;;;25.60;;
7169;SDS011;3626;42.656;23.312;2022-12-24T00:30:07;59.28;;;25.90;;
7169;SDS011;3626;42.656;23.312;2022-12-24T00:30:13;58.92;;;26.24;;
7169;SDS011;3626;42.656;23.312;2022-12-24T00:30:19;58.85;;;26.70;;
7169;SDS011;3626;42.656;23.312;2022-12-24T00:30:25;58.30;;;26.70;;
7169;SDS011;3626;42.656;23.312;2022-12-24T00:30:31;56.30;;;26.50;;
7169;SDS011;3626;42.656;23.312;2022-12-24T00:30:36;55.70;;;26.73;;
7169;SDS011;3626;42.656;23.312;2022-12-24T00:30:43;55.44;;;26.84;;
7169;SDS011;3626;42.656;23.312;2022-12-24T00:30:48;56.30;;;26.95;;
7169;SDS011;3626;42.656;23.312;2022-12-24T00:30:54;56.80;;;26.80;;
7169;SDS011;3626;42.656;23.312;2022-12-24T00:31:05;55.90;;;26.35;;
7169;SDS011;3626;42.656;23.312;2022-12-24T00:31:12;53.42;;;25.55;;
7169;SDS011;3626;42.656;23.312;2022-12-24T00:31:20;52.57;;;25.27;;
7169;SDS011;3626;42.656;23.312;2022-12-24T00:31:26;52.90;;;25.42;;
7169;SDS011;3626;42.656;23.312;2022-12-24T00:31:32;54.83;;;25.77;;
7169;SDS011;3626;42.656;23.312;2022-12-24T00:31:38;55.42;;;25.70;;
7169;SDS011;3626;42.656;23.312;2022-12-24T00:31:43;54.90;;;25.73;;
7169;SDS011;3626;42.656;23.312;2022-12-24T00:31:49;55.47;;;26.00;;
7169;SDS011;3626;42.656;23.312;2022-12-24T00:31:55;56.65;;;26.52;;
7169;SDS011;3626;42.656;23.312;2022-12-24T00:32:01;57.72;;;26.63;;
7169;SDS011;3626;42.656;23.312;2022-12-24T00:32:06;59.25;;;27.10;;
7169;SDS011;3626;42.656;23.312;2022-12-24T00:32:14;63.33;;;27.53;;
7169;SDS011;3626;42.656;23.312;2022-12-24T00:32:19;63.03;;;27.33;;
7169;SDS011;3626;42.656;23.312;2022-12-24T00:32:25;63.15;;;27.02;;
7169;SDS011;3626;42.656;23.312;2022-12-24T00:32:31;63.63;;;26.73;;
7169;SDS011;3626;42.656;23.312;2022-12-24T00:32:38;63.06;;;26.48;;
7169;SDS011;3626;42.656;23.312;2022-12-24T00:32:43;61.78;;;26.15;;
7169;SDS011;3626;42.656;23.312;2022-12-24T00:32:49;60.03;;;25.80;;
7169;SDS011;3626;42.656;23.312;2022-12-24T00:32:55;58.40;;;25.33;;
7169;SDS011;3626;42.656;23.312;2022-12-24T00:33:01;58.28;;;25.30;;
7169;SDS011;3626;42.656;23.312;2022-12-24T00:33:06;58.10;;;25.20;;
7169;SDS011;3626;42.656;23.312;2022-12-24T00:33:12;55.53;;;24.65;;
7169;SDS011;3626;42.656;23.312;2022-12-24T00:33:18;55.28;;;24.63;;
7169;SDS011;3626;42.656;23.312;2022-12-24T00:33:25;54.63;;;24.77;;
7169;SDS011;3626;42.656;23.312;2022-12-24T00:33:31;54.35;;;25.02;;
7169;SDS011;3626;42.656;23.312;2022-12-24T00:33:36;54.40;;;25.45;;
7169;SDS011;3626;42.656;23.312;2022-12-24T00:33:43;55.40;;;25.80;;
7169;SDS011;3626;42.656;23.312;2022-12-24T00:33:51;56.47;;;26.42;;
7169;SDS011;3626;42.656;23.312;2022-12-24T00:33:57;58.50;;;27.13;;
7169;SDS011;3626;42.656;23.312;2022-12-24T00:34:03;58.53;;;27.50;;
7169;SDS011;3626;42.656;23.312;2022-12-24T00:34:09;58.10;;;27.63;;
7169;SDS011;3626;42.656;23.312;2022-12-24T00:34:14;58.10;;;27.95;;
7169;SDS011;3626;42.656;23.312;2022-12-24T00:34:21;58.22;;;27.92;;
7169;SDS011;3626;42.656;23.312;2022-12-24T00:34:27;59.95;;;28.23;;
7169;SDS011;3626;42.656;23.312;2022-12-24T00:34:33;61.53;;;28.30;;
7169;SDS011;3626;42.656;23.312;2022-12-24T00:34:39;61.65;;;28.50;;
7169;SDS011;3626;42.656;23.312;2022-12-24T00:34:44;62.65;;;28.80;;
7169;SDS011;3626;42.656;23.312;2022-12-24T00:34:50;63.08;;;28.88;;
7169;SDS011;3626;42.656;23.312;2022-12-24T00:34:56;61.92;;;28.77;;
7169;SDS011;3626;42.656;23.312;2022-12-24T00:35:02;61.20;;;28.30;;
7169;SDS011;3626;42.656;23.312;2022-12-24T00:35:08;61.42;;;28.17;;
7169;SDS011;3626;42.656;23.312;2022-12-24T00:35:14;61.83;;;28.10;;
7169;SDS011;3626;42.656;23.312;2022-12-24T00:35:20;61.64;;;28.10;;
7169;SDS011;3626;42.656;23.312;2022-12-24T00:35:26;62.00;;;28.27;;
7169;SDS011;3626;42.656;23.312;2022-12-24T00:35:32;59.75;;;28.08;;
7169;SDS011;3626;42.656;23.312;2022-12-24T00:35:39;59.93;;;27.97;;
7169;SDS011;3626;42.656;23.312;2022-12-24T00:35:45;57.70;;;27.40;;
7169;SDS011;3626;42.656;23.312;2022-12-24T00:35:55;57.00;;;26.80;;